createdAt,value
2023-02-11T00:01:29.663Z,73.83
2023-02-11T00:03:57.663Z,73.28
2023-02-11T00:06:26.029Z,73.45
2023-02-11T00:08:52.932Z,73.78
2023-02-11T00:11:21.046Z,74.34
2023-02-11T00:13:48.640Z,74.36
2023-02-11T00:16:18.352Z,74.49
2023-02-11T00:18:45.548Z,74.26
2023-02-11T00:21:14.710Z,74.71
2023-02-11T00:23:42.574Z,74.48
2023-02-11T00:26:14.485Z,74.54
2023-02-11T00:28:43.195Z,74.64
2023-02-11T00:31:11.270Z,74.40
2023-02-11T00:33:38.499Z,74.63
2023-02-11T00:36:07.915Z,74.07
2023-02-11T00:38:34.680Z,74.35
2023-02-11T00:41:01.765Z,75.92
2023-02-11T00:43:28.711Z,75.52
2023-02-11T00:45:55.412Z,75.21
2023-02-11T00:48:23.487Z,75.20
2023-02-11T00:50:50.416Z,75.47
2023-02-11T00:53:17.128Z,75.51
2023-02-11T00:55:43.755Z,77.12
2023-02-11T00:58:10.470Z,76.46
2023-02-11T01:00:37.128Z,76.82
2023-02-11T01:03:04.070Z,76.66
2023-02-11T01:05:31.664Z,77.15
2023-02-11T01:07:59.170Z,76.79
2023-02-11T01:10:26.106Z,76.21
2023-02-11T01:12:52.891Z,76.08
2023-02-11T01:15:20.925Z,76.02
2023-02-11T01:17:47.752Z,76.07
2023-02-11T01:20:20.366Z,75.96
2023-02-11T01:22:47.329Z,74.92
2023-02-11T01:25:15.793Z,74.85
2023-02-11T01:27:42.669Z,74.95
2023-02-11T01:30:13.556Z,74.43
2023-02-11T01:32:41.117Z,75.75
2023-02-11T01:35:09.216Z,75.90
2023-02-11T01:37:36.676Z,75.83
2023-02-11T01:40:06.808Z,75.59
2023-02-11T01:42:34.827Z,75.90
2023-02-11T01:45:22.221Z,76.64
2023-02-11T01:47:49.026Z,75.69
2023-02-11T01:50:15.999Z,75.12
2023-02-11T01:52:43.947Z,74.86
2023-02-11T01:55:12.751Z,76.80
2023-02-11T01:57:44.748Z,76.69
2023-02-11T02:00:30.498Z,76.75
2023-02-11T02:03:17.932Z,76.47
2023-02-11T02:06:03.568Z,77.89
2023-02-11T02:08:39.373Z,77.01
2023-02-11T02:11:07.127Z,77.89
2023-02-11T02:13:36.948Z,77.50
2023-02-11T02:16:09.683Z,77.39
2023-02-11T02:19:01.139Z,77.04
2023-02-11T02:21:52.541Z,77.71
2023-02-11T02:24:38.081Z,77.31
2023-02-11T02:27:11.895Z,77.07
2023-02-11T02:30:04.425Z,77.11
2023-02-11T02:32:57.509Z,77.79
2023-02-11T02:35:48.771Z,77.68
2023-02-11T02:38:34.001Z,77.12
2023-02-11T02:41:15.190Z,78.28
2023-02-11T02:43:45.323Z,78.80
2023-02-11T02:46:22.145Z,78.98
2023-02-11T02:48:50.143Z,79.42
2023-02-11T02:51:44.177Z,79.52
2023-02-11T02:54:31.135Z,78.58
2023-02-11T02:57:22.392Z,79.03
2023-02-11T02:59:55.131Z,78.01
2023-02-11T03:02:31.579Z,78.20
2023-02-11T03:05:30.717Z,78.23
2023-02-11T03:08:09.454Z,78.93
2023-02-11T03:10:41.185Z,78.94
2023-02-11T03:13:08.229Z,79.88
2023-02-11T03:15:42.029Z,79.00
2023-02-11T03:18:11.853Z,79.52
2023-02-11T03:20:41.896Z,79.30
2023-02-11T03:23:16.195Z,78.84
2023-02-11T03:25:50.765Z,79.03
2023-02-11T03:28:33.570Z,78.93
2023-02-11T03:31:17.703Z,78.57
2023-02-11T03:34:01.951Z,78.90
2023-02-11T03:36:46.553Z,79.04
2023-02-11T03:39:19.484Z,78.51
2023-02-11T03:41:49.763Z,78.99
2023-02-11T03:44:17.166Z,78.91
2023-02-11T03:46:50.184Z,78.99
2023-02-11T03:49:20.433Z,78.90
2023-02-11T03:51:51.381Z,79.10
2023-02-11T03:54:24.498Z,79.53
2023-02-11T03:56:54.048Z,78.96
2023-02-11T03:59:20.648Z,78.04
2023-02-11T04:01:47.835Z,78.20
2023-02-11T04:04:14.844Z,78.42
2023-02-11T04:06:41.625Z,77.89
2023-02-11T04:09:08.262Z,77.58
2023-02-11T04:11:35.030Z,77.44
2023-02-11T04:14:01.820Z,77.60
2023-02-11T04:16:29.205Z,78.61
2023-02-11T04:18:55.883Z,78.16
2023-02-11T04:21:22.599Z,78.39
2023-02-11T04:23:49.216Z,78.52
2023-02-11T04:26:16.313Z,78.68
2023-02-11T04:28:42.859Z,78.68
2023-02-11T04:31:09.623Z,78.23
2023-02-11T04:33:36.356Z,78.99
2023-02-11T04:36:03.057Z,79.60
2023-02-11T04:38:29.672Z,79.08
2023-02-11T04:40:58.111Z,79.46
2023-02-11T04:43:24.696Z,79.46
2023-02-11T04:45:51.739Z,78.80
2023-02-11T04:48:18.537Z,78.43
2023-02-11T04:50:45.309Z,79.16
2023-02-11T04:53:11.907Z,79.17
2023-02-11T04:55:38.710Z,79.93
2023-02-11T04:58:05.292Z,79.88
2023-02-11T05:00:32.134Z,79.41
2023-02-11T05:02:58.818Z,78.87
2023-02-11T05:05:25.564Z,79.47
2023-02-11T05:07:52.146Z,79.38
2023-02-11T05:10:18.931Z,79.04
2023-02-11T05:12:48.259Z,78.81
2023-02-11T05:15:15.195Z,79.35
2023-02-11T05:17:41.857Z,79.62
2023-02-11T05:20:09.249Z,79.23
2023-02-11T05:22:35.830Z,78.29
2023-02-11T05:25:02.604Z,77.76
2023-02-11T05:27:29.281Z,78.20
2023-02-11T05:29:55.966Z,77.85
2023-02-11T05:32:23.071Z,77.42
2023-02-11T05:34:49.795Z,78.03
2023-02-11T05:37:16.428Z,78.35
2023-02-11T05:39:43.220Z,77.69
2023-02-11T05:42:09.844Z,78.19
2023-02-11T05:44:36.612Z,78.24
2023-02-11T05:47:03.450Z,79.00
2023-02-11T05:49:30.387Z,78.96
2023-02-11T05:51:57.326Z,78.98
2023-02-11T05:54:24.067Z,79.98
2023-02-11T05:56:50.667Z,80.58
2023-02-11T05:59:17.406Z,80.43
2023-02-11T06:01:44.405Z,80.88
2023-02-11T06:04:11.295Z,80.34
2023-02-11T06:06:38.050Z,79.70
2023-02-11T06:09:04.964Z,80.51
2023-02-11T06:11:31.709Z,81.06
2023-02-11T06:13:58.381Z,80.51
2023-02-11T06:16:25.184Z,80.04
2023-02-11T06:18:51.891Z,80.37
2023-02-11T06:21:18.691Z,80.42
2023-02-11T06:23:46.626Z,79.63
2023-02-11T06:26:22.112Z,79.99
2023-02-11T06:28:49.131Z,79.33
2023-02-11T06:31:16.711Z,79.43
2023-02-11T06:33:44.032Z,79.48
2023-02-11T06:36:17.299Z,80.47
2023-02-11T06:38:44.317Z,80.73
2023-02-11T06:41:12.840Z,81.36
2023-02-11T06:43:40.333Z,81.42
2023-02-11T06:46:08.536Z,81.67
2023-02-11T06:48:35.801Z,81.58
2023-02-11T06:51:08.169Z,83.52
2023-02-11T06:53:37.062Z,81.94
2023-02-11T06:56:09.086Z,81.45
2023-02-11T06:58:36.832Z,81.21
2023-02-11T07:01:11.759Z,81.62
2023-02-11T07:03:45.447Z,81.89
2023-02-11T07:06:17.739Z,82.83
2023-02-11T07:08:46.028Z,82.30
2023-02-11T07:11:24.395Z,82.12
2023-02-11T07:13:53.400Z,81.67
2023-02-11T07:16:20.533Z,82.08
2023-02-11T07:18:48.686Z,82.27
2023-02-11T07:21:18.801Z,82.05
2023-02-11T07:23:46.310Z,83.00
2023-02-11T07:26:18.021Z,83.02
2023-02-11T07:28:46.899Z,82.69
2023-02-11T07:31:28.160Z,82.49
2023-02-11T07:33:57.059Z,82.16
2023-02-11T07:36:23.790Z,83.69
2023-02-11T07:38:50.705Z,83.31
2023-02-11T07:41:20.472Z,82.98
2023-02-11T07:43:47.612Z,82.14
2023-02-11T07:46:21.253Z,82.25
2023-02-11T07:48:48.476Z,81.91
2023-02-11T07:51:16.219Z,80.96
2023-02-11T07:53:43.612Z,81.93
2023-02-11T07:56:12.153Z,81.97
2023-02-11T07:58:39.420Z,82.26
2023-02-11T08:01:09.026Z,82.46
2023-02-11T08:03:37.828Z,82.57
2023-02-11T08:06:10.729Z,81.94
2023-02-11T08:08:38.706Z,81.88
2023-02-11T08:11:18.191Z,83.34
2023-02-11T08:13:45.709Z,83.72
2023-02-11T08:16:23.146Z,84.11
2023-02-11T08:18:51.206Z,84.06
2023-02-11T08:21:18.374Z,83.95
2023-02-11T08:23:46.380Z,84.15
2023-02-11T08:26:19.611Z,84.93
2023-02-11T08:28:48.186Z,84.18
2023-02-11T08:31:21.000Z,83.73
2023-02-11T08:33:48.798Z,85.20
2023-02-11T08:36:22.515Z,84.91
2023-02-11T08:38:49.457Z,85.15
2023-02-11T08:41:17.918Z,84.72
2023-02-11T08:43:46.007Z,85.27
2023-02-11T08:46:15.660Z,84.90
2023-02-11T08:48:43.654Z,84.94
2023-02-11T08:51:15.333Z,85.80
2023-02-11T08:53:42.336Z,85.64
2023-02-11T08:56:12.237Z,84.98
2023-02-11T08:58:40.484Z,85.43
2023-02-11T09:01:23.090Z,84.74
2023-02-11T09:03:50.058Z,84.04
2023-02-11T09:06:16.932Z,84.00
2023-02-11T09:08:46.482Z,84.91
2023-02-11T09:11:13.637Z,83.49
2023-02-11T09:13:41.398Z,82.80
2023-02-11T09:16:08.354Z,82.31
2023-02-11T09:18:35.061Z,83.24
2023-02-11T09:21:03.696Z,83.27
2023-02-11T09:23:30.846Z,83.06
2023-02-11T09:25:57.471Z,81.63
2023-02-11T09:28:24.251Z,81.50
2023-02-11T09:30:52.626Z,81.39
2023-02-11T09:33:19.547Z,83.02
2023-02-11T09:35:46.145Z,82.47
2023-02-11T09:38:12.886Z,82.27
2023-02-11T09:40:45.157Z,82.83
2023-02-11T09:43:33.155Z,82.78
2023-02-11T09:46:00.916Z,82.44
2023-02-11T09:48:34.727Z,81.45
2023-02-11T09:51:04.042Z,81.89
2023-02-11T09:53:42.245Z,81.80
2023-02-11T09:56:15.423Z,81.58
2023-02-11T09:58:44.270Z,82.09
2023-02-11T10:01:35.653Z,82.00
2023-02-11T10:04:42.851Z,82.83
2023-02-11T10:07:29.679Z,82.21
2023-02-11T10:10:23.249Z,81.08
2023-02-11T10:13:32.943Z,81.31
2023-02-11T10:16:32.966Z,80.98
2023-02-11T10:20:18.057Z,80.75
2023-02-11T10:29:41.437Z,82.64
2023-02-11T10:32:26.860Z,82.32
2023-02-11T10:34:59.359Z,82.27
2023-02-11T10:37:26.220Z,81.51
2023-02-11T10:39:52.942Z,81.16
2023-02-11T10:42:19.740Z,80.58
2023-02-11T10:44:54.552Z,79.30
2023-02-11T10:47:24.433Z,79.81
2023-02-11T10:49:54.195Z,80.00
2023-02-11T10:52:24.567Z,79.56
2023-02-11T10:55:11.707Z,79.90
2023-02-11T10:57:49.880Z,79.31
2023-02-11T11:00:43.244Z,79.37
2023-02-11T11:03:22.022Z,79.20
2023-02-11T11:05:57.427Z,79.36
2023-02-11T11:08:46.725Z,79.50
2023-02-11T11:11:19.753Z,79.42
2023-02-11T11:13:52.691Z,78.99
2023-02-11T11:16:19.560Z,78.32
2023-02-11T11:18:50.899Z,78.71
2023-02-11T11:21:25.587Z,78.78
2023-02-11T11:24:01.781Z,77.71
2023-02-11T11:26:44.960Z,76.38
2023-02-11T11:29:17.877Z,75.63
2023-02-11T11:31:59.566Z,75.05
2023-02-11T11:34:43.674Z,75.27
2023-02-11T11:37:29.550Z,76.14
2023-02-11T11:40:24.525Z,76.36
2023-02-11T11:43:23.354Z,75.84
2023-02-11T11:45:59.348Z,75.28
2023-02-11T11:48:53.726Z,76.38
2023-02-11T11:51:41.810Z,77.25
2023-02-11T11:54:18.098Z,77.44
2023-02-11T11:57:05.543Z,78.36
2023-02-11T11:59:33.496Z,78.28
2023-02-11T12:02:29.730Z,78.79
2023-02-11T12:05:23.457Z,77.79
2023-02-11T12:08:09.153Z,78.76
2023-02-11T12:11:01.150Z,77.70
2023-02-11T12:13:52.976Z,78.45
2023-02-11T12:16:31.061Z,78.74
2023-02-11T12:19:10.397Z,78.61
2023-02-11T12:22:12.582Z,78.16
2023-02-11T12:24:53.948Z,79.19
2023-02-11T12:27:26.624Z,78.88
2023-02-11T12:30:08.150Z,80.15
2023-02-11T12:32:53.456Z,79.92
2023-02-11T12:35:39.239Z,78.86
2023-02-11T12:38:23.493Z,79.06
2023-02-11T12:41:01.892Z,79.49
2023-02-11T12:43:40.836Z,79.18
2023-02-11T12:46:43.229Z,79.51
2023-02-11T12:49:28.565Z,79.90
2023-02-11T12:52:14.175Z,79.98
2023-02-11T12:54:48.661Z,79.25
2023-02-11T12:57:23.454Z,78.90
2023-02-11T13:00:13.833Z,79.81
2023-02-11T13:03:06.289Z,79.30
2023-02-11T13:05:36.018Z,78.66
2023-02-11T13:08:12.219Z,78.52
2023-02-11T13:10:43.497Z,79.36
2023-02-11T13:13:25.337Z,79.46
2023-02-11T13:15:58.585Z,79.25
2023-02-11T13:18:52.259Z,78.90
2023-02-11T13:21:29.407Z,78.52
2023-02-11T13:24:01.494Z,78.51
2023-02-11T13:26:50.315Z,78.32
2023-02-11T13:29:30.090Z,80.32
2023-02-11T13:32:11.088Z,79.94
2023-02-11T13:34:43.939Z,79.58
2023-02-11T13:37:26.275Z,79.34
2023-02-11T13:40:01.112Z,79.04
2023-02-11T13:42:29.928Z,78.35
2023-02-11T13:44:57.011Z,79.61
2023-02-11T13:47:31.717Z,79.40
2023-02-11T13:50:00.588Z,78.21
2023-02-11T13:52:30.821Z,78.38
2023-02-11T13:55:04.769Z,79.18
2023-02-11T13:57:36.518Z,79.31
2023-02-11T14:00:44.409Z,79.20
2023-02-11T14:03:12.512Z,78.93
2023-02-11T14:06:07.938Z,79.60
2023-02-11T14:08:36.329Z,80.49
2023-02-11T14:11:10.970Z,80.43
2023-02-11T14:14:03.404Z,80.46
2023-02-11T14:16:37.932Z,79.66
2023-02-11T14:19:05.577Z,79.74
2023-02-11T14:21:36.472Z,81.04
2023-02-11T14:24:03.144Z,80.63
2023-02-11T14:26:58.366Z,80.12
2023-02-11T14:29:44.104Z,80.36
2023-02-11T14:32:45.912Z,79.81
2023-02-11T14:35:38.898Z,80.73
2023-02-11T14:38:18.005Z,80.62
2023-02-11T14:40:50.190Z,82.51
2023-02-11T14:43:22.654Z,81.45
2023-02-11T14:45:55.592Z,82.31
2023-02-11T14:48:29.484Z,82.72
2023-02-11T14:51:06.774Z,83.21
2023-02-11T14:53:34.883Z,82.62
2023-02-11T14:56:01.528Z,82.54
2023-02-11T14:58:31.100Z,81.33
2023-02-11T15:01:06.768Z,82.50
2023-02-11T15:03:38.970Z,82.87
2023-02-11T15:06:22.310Z,83.61
2023-02-11T15:08:52.928Z,83.47
2023-02-11T15:11:22.367Z,83.02
2023-02-11T15:13:50.020Z,84.38
2023-02-11T15:16:21.072Z,84.74
2023-02-11T15:18:56.832Z,85.43
2023-02-11T15:21:26.411Z,86.18
2023-02-11T15:24:09.250Z,87.00
2023-02-11T15:26:35.928Z,86.47
2023-02-11T15:29:02.518Z,85.68
2023-02-11T15:31:30.112Z,85.77
2023-02-11T15:34:07.206Z,87.12
2023-02-11T15:36:34.092Z,86.66
2023-02-11T15:39:31.404Z,85.81
2023-02-11T15:42:23.568Z,87.45
2023-02-11T15:45:09.090Z,88.78
2023-02-11T15:47:36.244Z,88.17
2023-02-11T15:50:03.289Z,89.38
2023-02-11T15:52:30.940Z,88.46
2023-02-11T15:55:00.603Z,88.41
2023-02-11T15:57:28.330Z,87.99
2023-02-11T15:59:55.925Z,88.02
2023-02-11T16:02:32.260Z,88.16
2023-02-11T16:05:03.046Z,87.70
2023-02-11T16:07:41.779Z,88.57
2023-02-11T16:10:31.377Z,88.11
2023-02-11T16:13:07.199Z,88.29
2023-02-11T16:15:33.863Z,87.54
2023-02-11T16:18:03.455Z,88.88
2023-02-11T16:20:30.745Z,89.07
2023-02-11T16:22:57.564Z,87.79
2023-02-11T16:25:24.347Z,88.68
2023-02-11T16:27:54.548Z,88.63
2023-02-11T16:30:42.173Z,89.70
2023-02-11T16:33:11.296Z,89.32
2023-02-11T16:35:37.874Z,89.23
2023-02-11T16:38:05.564Z,88.15
2023-02-11T16:40:32.258Z,87.71
2023-02-11T16:42:58.929Z,89.14
2023-02-11T16:45:25.679Z,89.68
2023-02-11T16:47:52.816Z,88.65
2023-02-11T16:50:22.873Z,87.64
2023-02-11T16:52:49.860Z,87.73
2023-02-11T16:55:16.667Z,88.49
2023-02-11T16:57:43.353Z,89.14
2023-02-11T17:00:11.557Z,89.94
2023-02-11T17:02:39.024Z,89.44
2023-02-11T17:05:15.446Z,89.59
2023-02-11T17:07:42.143Z,89.72
2023-02-11T17:10:27.385Z,90.25
2023-02-11T17:12:55.177Z,90.11
2023-02-11T17:15:21.770Z,91.77
2023-02-11T17:17:48.441Z,91.31
2023-02-11T17:20:15.788Z,92.38
2023-02-11T17:22:42.577Z,91.76
2023-02-11T17:25:09.446Z,92.10
2023-02-11T17:27:36.201Z,91.61
2023-02-11T17:30:03.354Z,91.90
2023-02-11T17:32:32.177Z,91.45
2023-02-11T17:34:58.834Z,91.80
2023-02-11T17:37:25.588Z,91.97
2023-02-11T17:39:52.179Z,92.19
2023-02-11T17:42:19.011Z,91.06
2023-02-11T17:44:45.935Z,90.88
2023-02-11T17:47:15.286Z,90.47
2023-02-11T17:49:43.517Z,90.80
2023-02-11T17:52:10.291Z,90.21
2023-02-11T17:54:38.041Z,89.93
2023-02-11T17:57:05.360Z,90.42
2023-02-11T17:59:32.028Z,89.84
2023-02-11T18:01:58.691Z,89.62
2023-02-11T18:04:26.657Z,89.22
2023-02-11T18:06:56.682Z,88.79
2023-02-11T18:09:29.438Z,88.77
2023-02-11T18:12:06.214Z,89.26
2023-02-11T18:14:41.460Z,88.74
2023-02-11T18:17:09.477Z,89.08
2023-02-11T18:22:43.897Z,90.31
2023-02-11T18:25:27.323Z,89.17
2023-02-11T18:27:55.373Z,89.77
2023-02-11T18:30:22.725Z,89.94
2023-02-11T18:32:54.210Z,90.39
2023-02-11T18:35:21.347Z,91.08
2023-02-11T18:37:48.752Z,90.69
2023-02-11T18:40:16.014Z,91.11
2023-02-11T18:42:42.900Z,92.00
2023-02-11T18:45:12.813Z,91.48
2023-02-11T18:47:40.069Z,91.05
2023-02-11T18:50:10.152Z,90.64
2023-02-11T18:52:36.838Z,90.13
2023-02-11T18:55:04.909Z,89.25
2023-02-11T18:57:36.307Z,89.71
2023-02-11T19:00:03.800Z,89.75
2023-02-11T19:02:31.659Z,89.94
2023-02-11T19:05:00.100Z,90.26
2023-02-11T19:07:27.805Z,89.27
2023-02-11T19:09:55.974Z,88.86
2023-02-11T19:12:22.655Z,88.64
2023-02-11T19:14:49.386Z,87.93
2023-02-11T19:17:16.208Z,88.53
2023-02-11T19:19:43.051Z,88.99
2023-02-11T19:22:10.793Z,88.93
2023-02-11T19:24:37.915Z,90.11
2023-02-11T19:27:05.256Z,90.17
2023-02-11T19:29:57.804Z,89.76
2023-02-11T19:32:25.102Z,88.68
2023-02-11T19:34:52.031Z,87.71
2023-02-11T19:37:18.900Z,87.47
2023-02-11T19:39:47.281Z,87.76
2023-02-11T19:42:14.090Z,88.31
2023-02-11T19:44:41.865Z,88.51
2023-02-11T19:47:12.685Z,88.25
2023-02-11T19:49:39.989Z,88.21
2023-02-11T19:52:37.089Z,88.50
2023-02-11T19:55:50.602Z,88.59
2023-02-11T19:58:42.889Z,88.62
2023-02-11T20:01:32.408Z,88.19
2023-02-11T20:04:08.843Z,88.69
2023-02-11T20:06:51.676Z,89.34
2023-02-11T20:09:29.096Z,89.23
2023-02-11T20:12:14.762Z,88.79
2023-02-11T20:15:04.747Z,88.86
2023-02-11T20:17:50.048Z,88.24
2023-02-11T20:23:42.196Z,89.47
2023-02-11T20:26:36.757Z,88.95
2023-02-11T20:32:38.311Z,90.07
2023-02-11T20:35:20.415Z,90.66
2023-02-11T20:37:48.567Z,89.93
2023-02-11T20:40:16.872Z,90.24
2023-02-11T20:42:44.508Z,90.22
2023-02-11T20:45:13.683Z,91.60
2023-02-11T20:51:01.086Z,91.71
2023-02-11T20:54:06.524Z,90.36
2023-02-11T20:56:59.353Z,90.97
2023-02-11T20:59:26.707Z,90.98
2023-02-11T21:01:56.010Z,91.34
2023-02-11T21:04:27.593Z,90.70
2023-02-11T21:06:57.688Z,90.44
2023-02-11T21:09:27.864Z,89.97
2023-02-11T21:11:55.406Z,91.34
2023-02-11T21:14:23.385Z,91.44
2023-02-11T21:16:52.301Z,91.70
2023-02-11T21:19:21.616Z,91.46
2023-02-11T21:21:51.384Z,91.86
2023-02-11T21:24:23.109Z,91.72
2023-02-11T21:26:49.842Z,91.44
2023-02-11T21:29:16.652Z,90.90
2023-02-11T21:31:43.427Z,90.51
2023-02-11T21:34:10.334Z,91.40
2023-02-11T21:36:41.130Z,90.23
2023-02-11T21:43:16.916Z,91.59
2023-02-11T21:50:02.715Z,91.97
2023-02-11T21:56:34.079Z,89.42
2023-02-11T21:59:49.962Z,89.52
2023-02-11T22:02:30.280Z,88.78
2023-02-11T22:05:01.360Z,88.79
2023-02-11T22:07:48.680Z,88.76
2023-02-11T22:10:22.478Z,89.24
2023-02-11T22:12:52.346Z,88.79
2023-02-11T22:15:24.247Z,88.37
2023-02-11T22:17:52.856Z,89.25
2023-02-11T22:20:19.739Z,88.89
2023-02-11T22:22:53.901Z,88.94
2023-02-11T22:25:22.304Z,88.54
2023-02-11T22:28:00.599Z,89.25
2023-02-11T22:30:46.855Z,89.72
2023-02-11T22:33:27.580Z,90.31
2023-02-11T22:36:27.300Z,90.95
2023-02-11T22:39:13.332Z,90.59
2023-02-11T22:42:06.676Z,90.23
2023-02-11T22:44:56.023Z,90.01
2023-02-11T22:47:30.644Z,90.78
2023-02-11T22:49:59.873Z,92.37
2023-02-11T22:52:30.977Z,92.17
2023-02-11T22:55:14.471Z,92.31
2023-02-11T23:06:36.474Z,90.29
2023-02-11T23:11:52.818Z,91.29
2023-02-11T23:14:32.797Z,90.66
2023-02-11T23:17:06.868Z,89.81
2023-02-11T23:22:45.301Z,88.93
2023-02-11T23:25:55.968Z,89.76
2023-02-11T23:28:51.629Z,89.96
2023-02-11T23:31:25.688Z,89.56
2023-02-11T23:33:58.451Z,89.28
2023-02-11T23:36:38.920Z,90.87
2023-02-11T23:39:07.370Z,90.72
2023-02-11T23:41:38.365Z,90.76
2023-02-11T23:44:08.023Z,90.92
2023-02-11T23:46:38.665Z,90.14
2023-02-11T23:49:07.414Z,89.94
2023-02-11T23:51:34.018Z,89.18
2023-02-11T23:54:01.871Z,89.47
2023-02-11T23:56:28.918Z,88.88
2023-02-11T23:58:58.803Z,88.90
